Time;durP1;ratioP1;P1;durP2;ratioP2;P2;SDS_P1;SDS_P2;PMS_P1;PMS_P2;Temp;Humidity;BMP_temperature;BMP_pressure;BME280_temperature;BME280_humidity;BME280_pressure;Samples;Min_cycle;Max_cycle;Signal;HPM_P1;HPM_P2
2024/01/14 07:09:37;;;;;;;;;;;;;;;2.95;71.11;96785.41;4214632;27;10419;-63
2024/01/14 07:11:40;;;;;;;;;;;;;;;3.26;70.70;96789.31;4215022;28;5685;-63
2024/01/14 07:13:44;;;;;;;;;;;;;;;3.50;69.95;96786.94;4214851;28;5903;-62
2024/01/14 07:15:47;;;;;;;;;;;;;;;3.67;69.58;96781.88;4214816;28;5799;-62
2024/01/14 07:17:50;;;;;;;;;;;;;;;3.81;69.20;96789.19;4214746;28;5690;-62
2024/01/14 07:20:01;;;;;;;;;;;;;;;3.94;69.00;96792.22;4214973;28;5796;-63
2024/01/14 07:22:06;;;;;;;;;;;;;;;4.02;68.36;96781.81;4214723;28;5705;-63
2024/01/14 07:24:09;;;;;;;;;;;;;;;4.08;67.96;96781.22;4217313;28;5701;-63
2024/01/14 07:26:13;;;;;;;;;;;;;;;4.10;67.72;96783.69;4214888;28;5690;-63
2024/01/14 07:28:17;;;;;;;;;;;;;;;4.08;67.28;96783.03;4214815;28;5670;-63
2024/01/14 07:30:20;;;;;;;;;;;;;;;4.13;67.27;96787.78;4214722;28;5828;-64
2024/01/14 07:32:23;;;;;;;;;;;;;;;4.20;67.27;96783.59;4214599;28;5785;-64
2024/01/14 07:34:27;;;;;;;;;;;;;;;4.27;66.77;96789.84;4214872;28;5789;-63
2024/01/14 07:36:30;;;;;;;;;;;;;;;4.24;66.43;96788.34;4214543;28;5686;-63
2024/01/14 07:38:32;;;;;;;;;;;;;;;4.26;66.32;96789.03;4214728;28;5698;-63
2024/01/14 07:40:35;;;;;;;;;;;;;;;4.27;66.08;96784.59;4218198;28;5702;-64
2024/01/14 07:42:40;;;;;;;;;;;;;;;4.28;66.08;96775.78;4214310;28;5094;-63
2024/01/14 07:44:43;;;;;;;;;;;;;;;4.27;65.88;96774.97;4213980;28;7736;-64
2024/01/14 07:46:47;;;;;;;;;;;;;;;4.28;65.70;96765.31;4214220;28;5724;-63
2024/01/14 07:48:48;;;;;;;;;;;;;;;4.27;65.40;96780.19;4214255;28;5701;-64
2024/01/14 07:50:51;;;;;;;;;;;;;;;4.28;65.44;96770.53;4213856;28;5888;-64
2024/01/14 07:52:54;;;;;;;;;;;;;;;4.29;65.15;96759.91;4213246;28;5718;-64
2024/01/14 07:54:57;;;;;;;;;;;;;;;4.32;65.27;96753.56;4213906;28;6043;-64
2024/01/14 07:57:04;;;;;;;;;;;;;;;4.33;65.02;96747.34;4213932;28;6193;-64
2024/01/14 07:59:09;;;;;;;;;;;;;;;4.36;65.13;96747.84;4212973;28;5777;-62
2024/01/14 08:01:11;;;;;;;;;;;;;;;4.37;64.79;96753.91;4213793;28;5704;-63
2024/01/14 08:03:14;;;;;;;;;;;;;;;4.37;64.86;96759.97;4213735;28;5803;-63
2024/01/14 08:05:16;;;;;;;;;;;;;;;4.43;64.63;96758.53;4213957;28;5817;-62
2024/01/14 08:07:19;;;;;;;;;;;;;;;4.43;64.58;96752.50;4213799;28;5741;-63
2024/01/14 08:09:23;;;;;;;;;;;;;;;4.44;64.52;96754.94;4223593;28;5743;-63
2024/01/14 08:11:26;;;;;;;;;;;;;;;4.44;64.32;96754.94;4219134;28;5826;-63
2024/01/14 08:13:28;;;;;;;;;;;;;;;4.41;64.29;96752.63;4221909;28;5792;-63
2024/01/14 08:15:32;;;;;;;;;;;;;;;4.40;64.18;96758.84;4219031;28;5667;-63
2024/01/14 08:17:55;;;;;;;;;;;;;;;4.40;63.94;96761.44;4213341;28;5692;-62
2024/01/14 08:19:58;;;;;;;;;;;;;;;4.45;63.90;96758.38;4219010;28;5660;-63
2024/01/14 08:22:02;;;;;;;;;;;;;;;4.51;63.77;96755.94;4216855;28;5672;-63
2024/01/14 08:24:05;;;;;;;;;;;;;;;4.56;63.81;96752.88;4218754;28;5836;-64
2024/01/14 08:26:08;;;;;;;;;;;;;;;4.57;63.71;96755.34;4218303;28;5672;-64
2024/01/14 08:28:11;;;;;;;;;;;;;;;4.53;63.34;96763.63;4217696;28;5817;-63
2024/01/14 08:30:14;;;;;;;;;;;;;;;4.44;63.27;96760.19;4216690;28;5683;-63
2024/01/14 08:32:22;;;;;;;;;;;;;;;4.44;63.39;96764.59;4221436;28;5089;-63
2024/01/14 08:34:26;;;;;;;;;;;;;;;4.42;63.34;96764.75;4218591;28;5668;-63
2024/01/14 08:36:29;;;;;;;;;;;;;;;4.44;63.12;96764.59;4218373;28;5673;-64
2024/01/14 08:38:32;;;;;;;;;;;;;;;4.43;63.25;96753.31;4215820;28;5940;-64
2024/01/14 08:40:34;;;;;;;;;;;;;;;4.40;63.17;96750.97;4209564;28;5678;-65
2024/01/14 08:42:37;;;;;;;;;;;;;;;4.38;63.24;96748.53;4215444;28;5771;-64
2024/01/14 08:44:41;;;;;;;;;;;;;;;4.41;62.87;96739.53;4214683;28;5677;-64
2024/01/14 08:46:47;;;;;;;;;;;;;;;4.40;62.73;96737.88;4213032;28;5666;-64
2024/01/14 08:48:54;;;;;;;;;;;;;;;4.35;62.57;96735.75;4218069;28;5684;-64
2024/01/14 08:50:59;;;;;;;;;;;;;;;4.39;62.82;96733.63;4213465;28;5850;-63
2024/01/14 08:53:02;;;;;;;;;;;;;;;4.38;62.76;96737.22;4217164;28;5663;-64
2024/01/14 08:55:06;;;;;;;;;;;;;;;4.37;62.54;96733.78;4218098;28;5668;-64
2024/01/14 08:57:11;;;;;;;;;;;;;;;4.36;62.45;96731.34;4218565;28;5679;-63
2024/01/14 08:59:14;;;;;;;;;;;;;;;4.38;62.40;96739.84;4217900;28;5660;-64
2024/01/14 09:01:17;;;;;;;;;;;;;;;4.41;62.57;96742.16;4218625;28;5682;-63
2024/01/14 09:03:20;;;;;;;;;;;;;;;4.43;62.44;96742.03;4218483;28;6384;-64
2024/01/14 09:05:25;;;;;;;;;;;;;;;4.49;62.37;96741.38;4218976;28;5668;-64
2024/01/14 09:07:27;;;;;;;;;;;;;;;4.53;62.29;96740.94;4218525;28;5695;-64
2024/01/14 09:09:30;;;;;;;;;;;;;;;4.52;62.08;96738.44;4218189;28;5668;-65
2024/01/14 09:11:33;;;;;;;;;;;;;;;4.48;62.03;96732.72;4210340;28;5871;-63
2024/01/14 09:13:36;;;;;;;;;;;;;;;4.48;61.71;96730.09;4218891;28;5862;-65
2024/01/14 09:15:39;;;;;;;;;;;;;;;4.44;61.78;96734.00;4218498;28;5667;-66
2024/01/14 09:17:42;;;;;;;;;;;;;;;4.46;61.78;96737.28;4217593;28;5693;-65
2024/01/14 09:19:45;;;;;;;;;;;;;;;4.48;61.87;96739.75;4218705;28;5746;-63
2024/01/14 09:21:51;;;;;;;;;;;;;;;4.47;61.49;96728.44;4217450;28;5655;-64
2024/01/14 09:23:54;;;;;;;;;;;;;;;4.46;61.67;96721.56;4218089;28;5727;-63
2024/01/14 09:25:57;;;;;;;;;;;;;;;4.50;61.57;96728.13;4218561;28;5667;-64
2024/01/14 09:28:00;;;;;;;;;;;;;;;4.57;61.71;96738.81;4217662;28;6560;-63
2024/01/14 09:30:04;;;;;;;;;;;;;;;4.62;61.50;96724.25;4217903;28;6768;-64
2024/01/14 09:32:08;;;;;;;;;;;;;;;4.65;61.57;96726.56;4218537;28;6374;-63
2024/01/14 09:34:11;;;;;;;;;;;;;;;4.64;61.35;96722.31;4215228;28;5683;-63
2024/01/14 09:36:13;;;;;;;;;;;;;;;4.62;61.33;96724.25;4216338;28;5781;-64
2024/01/14 09:38:17;;;;;;;;;;;;;;;4.64;61.36;96719.69;4217961;28;6341;-64
2024/01/14 09:40:20;;;;;;;;;;;;;;;4.69;61.53;96719.22;4218197;28;6459;-64
2024/01/14 09:42:28;;;;;;;;;;;;;;;4.70;61.31;96722.66;4212847;28;5699;-63
2024/01/14 09:44:32;;;;;;;;;;;;;;;4.67;61.25;96719.38;4217316;28;5855;-63
2024/01/14 09:46:35;;;;;;;;;;;;;;;4.66;61.05;96722.16;4209875;28;5671;-64
2024/01/14 09:48:39;;;;;;;;;;;;;;;4.60;61.19;96717.53;4217397;28;5664;-63
2024/01/14 09:50:42;;;;;;;;;;;;;;;4.60;61.20;96718.34;4217219;28;5678;-63
2024/01/14 09:52:46;;;;;;;;;;;;;;;4.60;61.02;96723.59;4212759;28;5781;-63
2024/01/14 09:54:49;;;;;;;;;;;;;;;4.65;61.31;96716.09;4220054;28;5818;-64
2024/01/14 09:56:54;;;;;;;;;;;;;;;4.75;61.37;96709.88;4217980;28;5825;-62
2024/01/14 09:58:57;;;;;;;;;;;;;;;4.82;61.29;96710.91;4222898;28;5667;-64
2024/01/14 10:01:01;;;;;;;;;;;;;;;4.86;61.20;96702.56;4222270;28;5777;-64
2024/01/14 10:03:06;;;;;;;;;;;;;;;4.88;60.92;96700.63;4217656;28;5663;-63
2024/01/14 10:05:09;;;;;;;;;;;;;;;4.90;60.94;96708.31;4217377;28;5664;-63
2024/01/14 10:07:13;;;;;;;;;;;;;;;4.91;60.81;96709.97;4217386;28;5770;-64
2024/01/14 10:09:17;;;;;;;;;;;;;;;4.92;60.83;96706.34;4217183;28;5659;-63
2024/01/14 10:11:20;;;;;;;;;;;;;;;4.94;60.66;96696.53;4217709;28;5713;-64
2024/01/14 10:13:23;;;;;;;;;;;;;;;4.93;60.67;96695.72;4218069;28;5653;-62
2024/01/14 10:15:26;;;;;;;;;;;;;;;4.95;60.92;96685.06;4217492;28;5668;-64
2024/01/14 10:17:29;;;;;;;;;;;;;;;4.97;60.86;96696.19;4217851;28;5680;-65
2024/01/14 10:19:33;;;;;;;;;;;;;;;4.95;60.75;96685.88;4217331;28;5679;-63
2024/01/14 10:21:36;;;;;;;;;;;;;;;4.97;60.76;96688.34;4217663;28;5674;-63
2024/01/14 10:23:42;;;;;;;;;;;;;;;4.97;60.63;96693.59;4217602;28;5688;-63
2024/01/14 10:25:46;;;;;;;;;;;;;;;5.01;60.57;96683.63;4217679;28;5686;-63
2024/01/14 10:27:49;;;;;;;;;;;;;;;4.95;60.23;96685.06;4212536;28;5869;-63
2024/01/14 10:29:52;;;;;;;;;;;;;;;4.93;60.60;96679.19;4212784;28;6627;-63
2024/01/14 10:31:56;;;;;;;;;;;;;;;4.94;60.43;96679.00;4220268;28;5783;-63
2024/01/14 10:33:59;;;;;;;;;;;;;;;4.95;60.64;96674.59;4216179;28;6377;-63
2024/01/14 10:36:06;;;;;;;;;;;;;;;4.97;60.40;96668.19;4216308;28;5672;-64
2024/01/14 10:38:10;;;;;;;;;;;;;;;4.99;60.49;96668.06;4214056;28;5834;-63
2024/01/14 10:40:13;;;;;;;;;;;;;;;4.95;60.23;96669.34;4216012;28;5946;-63
2024/01/14 10:42:16;;;;;;;;;;;;;;;4.95;60.45;96656.25;4214463;28;5786;-64
2024/01/14 10:44:20;;;;;;;;;;;;;;;4.96;60.30;96661.31;4215879;28;5676;-64
2024/01/14 10:46:24;;;;;;;;;;;;;;;4.96;60.45;96655.28;4217252;28;5794;-64
2024/01/14 10:48:28;;;;;;;;;;;;;;;4.97;60.47;96657.72;4216269;28;5684;-64
2024/01/14 10:50:35;;;;;;;;;;;;;;;4.99;60.30;96644.50;4216349;28;5664;-64
2024/01/14 10:52:54;;;;;;;;;;;;;;;5.02;60.39;96643.34;4210280;28;5755;-64
2024/01/14 10:55:01;;;;;;;;;;;;;;;5.06;60.42;96645.47;4216192;28;5679;-64
2024/01/14 10:57:11;;;;;;;;;;;;;;;5.02;60.34;96644.16;4216335;28;5660;-64
2024/01/14 10:59:16;;;;;;;;;;;;;;;5.06;60.60;96636.78;4215778;28;5653;-63
2024/01/14 11:01:23;;;;;;;;;;;;;;;5.07;60.34;96633.19;4216354;28;5845;-63
2024/01/14 11:03:28;;;;;;;;;;;;;;;5.08;60.48;96619.91;4216556;28;5803;-63
2024/01/14 11:05:33;;;;;;;;;;;;;;;5.12;60.24;96621.25;4216191;28;5668;-64
2024/01/14 11:07:37;;;;;;;;;;;;;;;5.11;60.33;96616.16;4208031;28;5672;-64
2024/01/14 11:09:41;;;;;;;;;;;;;;;5.07;60.11;96605.16;4215652;28;5656;-64
2024/01/14 11:11:52;;;;;;;;;;;;;;;5.07;60.40;96607.78;4215991;28;5675;-64
2024/01/14 11:14:04;;;;;;;;;;;;;;;5.07;60.13;96610.41;4215951;28;5672;-65
2024/01/14 11:16:13;;;;;;;;;;;;;;;5.05;60.16;96588.81;4216132;28;5734;-64
2024/01/14 11:18:23;;;;;;;;;;;;;;;5.10;60.35;96589.16;4216035;28;5829;-64
2024/01/14 11:20:31;;;;;;;;;;;;;;;5.16;60.00;96593.72;4215817;28;5734;-64
2024/01/14 11:22:52;;;;;;;;;;;;;;;5.17;60.00;96590.09;4210190;28;5890;-63
2024/01/14 11:25:00;;;;;;;;;;;;;;;5.18;60.07;96583.88;4216004;28;5715;-63
2024/01/14 11:27:04;;;;;;;;;;;;;;;5.20;59.88;96581.91;4215809;28;5684;-63
2024/01/14 11:29:31;;;;;;;;;;;;;;;5.22;59.85;96576.53;4215699;28;5762;-63
2024/01/14 11:32:05;;;;;;;;;;;;;;;5.18;59.95;96565.53;4215985;28;5838;-63
2024/01/14 11:34:10;;;;;;;;;;;;;;;5.17;59.79;96569.16;4215930;28;5664;-63
2024/01/14 11:36:54;;;;;;;;;;;;;;;5.16;60.15;96557.03;4215755;28;6453;-63
2024/01/14 11:38:57;;;;;;;;;;;;;;;5.18;59.91;96549.81;4218221;28;5747;-63
2024/01/14 11:40:59;;;;;;;;;;;;;;;5.19;60.07;96548.81;4215616;28;5797;-63
2024/01/14 11:43:06;;;;;;;;;;;;;;;5.18;59.74;96541.13;4214973;28;5700;-62
2024/01/14 11:45:14;;;;;;;;;;;;;;;5.17;59.81;96539.50;4209131;28;5676;-62
2024/01/14 11:47:17;;;;;;;;;;;;;;;5.18;59.83;96531.47;4216776;28;5827;-64
2024/01/14 11:49:24;;;;;;;;;;;;;;;5.20;59.71;96537.34;4218775;28;5748;-64
2024/01/14 11:51:26;;;;;;;;;;;;;;;5.21;59.64;96532.97;4219024;28;5671;-64
2024/01/14 11:53:35;;;;;;;;;;;;;;;5.23;59.59;96529.19;4218504;28;5745;-64
2024/01/14 11:55:38;;;;;;;;;;;;;;;5.28;59.89;96528.69;4217582;28;5747;-64
2024/01/14 11:57:41;;;;;;;;;;;;;;;5.31;59.50;96527.53;4218646;28;5747;-63
2024/01/14 11:59:44;;;;;;;;;;;;;;;5.30;59.69;96520.66;4218659;28;5811;-63
2024/01/14 12:01:48;;;;;;;;;;;;;;;5.31;59.45;96519.66;4218747;28;5751;-62
2024/01/14 12:04:01;;;;;;;;;;;;;;;5.26;59.66;96517.53;4218741;28;5758;-63
2024/01/14 12:06:05;;;;;;;;;;;;;;;5.28;59.45;96512.94;4218803;28;5846;-63
2024/01/14 12:08:08;;;;;;;;;;;;;;;5.32;59.69;96513.44;4218806;28;5913;-63
2024/01/14 12:10:14;;;;;;;;;;;;;;;5.34;59.79;96503.63;4218735;28;5754;-63
2024/01/14 12:12:18;;;;;;;;;;;;;;;5.33;59.63;96492.31;4222271;28;5669;-63
2024/01/14 12:14:21;;;;;;;;;;;;;;;5.32;59.64;96500.31;4218268;28;5880;-63
2024/01/14 12:16:24;;;;;;;;;;;;;;;5.33;59.66;96491.50;4217286;28;5720;-63
2024/01/14 12:18:39;;;;;;;;;;;;;;;5.36;59.63;96484.09;4218909;28;5692;-63
2024/01/14 12:20:48;;;;;;;;;;;;;;;5.40;59.84;96485.41;4212606;28;5800;-63
2024/01/14 12:23:04;;;;;;;;;;;;;;;5.42;59.50;96482.59;4218489;28;5826;-63
2024/01/14 12:25:09;;;;;;;;;;;;;;;5.40;59.49;96471.47;4218195;28;5671;-64
2024/01/14 12:27:11;;;;;;;;;;;;;;;5.46;59.75;96476.06;4218179;28;5695;-64
2024/01/14 12:29:14;;;;;;;;;;;;;;;5.48;59.52;96458.34;4218178;28;5759;-64
2024/01/14 12:31:21;;;;;;;;;;;;;;;5.50;59.74;96469.47;4218193;28;5652;-64
2024/01/14 12:33:31;;;;;;;;;;;;;;;5.49;59.45;96452.94;4218325;28;5924;-64
2024/01/14 12:35:35;;;;;;;;;;;;;;;5.50;59.46;96464.22;4201741;28;5705;-63
2024/01/14 12:37:38;;;;;;;;;;;;;;;5.47;59.52;96464.59;4218141;28;5684;-64
2024/01/14 12:39:42;;;;;;;;;;;;;;;5.43;59.34;96448.34;4218041;28;5663;-63
2024/01/14 12:41:46;;;;;;;;;;;;;;;5.45;59.40;96445.59;4217574;28;5779;-64
2024/01/14 12:43:57;;;;;;;;;;;;;;;5.44;59.64;96443.94;4217972;28;5719;-63
2024/01/14 12:46:03;;;;;;;;;;;;;;;5.40;59.35;96438.22;4218103;28;5672;-64
2024/01/14 12:48:06;;;;;;;;;;;;;;;5.37;59.49;96429.88;4218098;28;5880;-63
2024/01/14 12:50:12;;;;;;;;;;;;;;;5.37;59.76;96416.78;4217882;28;6356;-64
2024/01/14 12:52:15;;;;;;;;;;;;;;;5.37;59.56;96420.22;4218012;28;5954;-63
2024/01/14 12:54:19;;;;;;;;;;;;;;;5.38;59.42;96415.78;4217779;28;5660;-64
2024/01/14 12:56:31;;;;;;;;;;;;;;;5.45;59.65;96414.94;4217852;28;5691;-64
2024/01/14 12:58:33;;;;;;;;;;;;;;;5.49;59.56;96404.91;4217557;28;5755;-63
2024/01/14 13:00:38;;;;;;;;;;;;;;;5.50;59.37;96409.16;4217698;28;5683;-63
2024/01/14 13:02:42;;;;;;;;;;;;;;;5.46;59.51;96405.28;4218990;28;5853;-64
2024/01/14 13:04:45;;;;;;;;;;;;;;;5.45;59.56;96393.16;4217783;28;5759;-64
2024/01/14 13:06:48;;;;;;;;;;;;;;;5.43;59.39;96410.84;4217919;28;5750;-64
2024/01/14 13:08:55;;;;;;;;;;;;;;;5.39;59.73;96399.88;4217450;28;5652;-63
2024/01/14 13:10:58;;;;;;;;;;;;;;;5.38;59.58;96393.00;4217591;28;5755;-64
2024/01/14 13:13:02;;;;;;;;;;;;;;;5.41;59.47;96382.16;4217520;28;5660;-64
2024/01/14 13:15:05;;;;;;;;;;;;;;;5.43;59.52;96385.44;4217382;28;5775;-64
2024/01/14 13:17:08;;;;;;;;;;;;;;;5.43;59.34;96376.75;4217694;28;5680;-63
2024/01/14 13:19:10;;;;;;;;;;;;;;;5.44;59.54;96383.66;4218168;28;5795;-63
2024/01/14 13:21:14;;;;;;;;;;;;;;;5.42;59.64;96380.38;4220016;28;5653;-63
2024/01/14 13:23:17;;;;;;;;;;;;;;;5.42;59.56;96383.78;4216451;28;6325;-63
2024/01/14 13:25:19;;;;;;;;;;;;;;;5.44;59.72;96383.66;4217570;28;5664;-63
2024/01/14 13:27:22;;;;;;;;;;;;;;;5.44;59.47;96375.78;4217218;28;5664;-63
2024/01/14 13:29:26;;;;;;;;;;;;;;;5.48;59.41;96377.06;4214282;28;5835;-63
2024/01/14 13:31:31;;;;;;;;;;;;;;;5.50;59.62;96375.91;4215531;28;5697;-64
2024/01/14 13:33:35;;;;;;;;;;;;;;;5.47;59.49;96368.38;4218248;28;5742;-64
2024/01/14 13:35:38;;;;;;;;;;;;;;;5.42;59.33;96367.25;4218196;28;5723;-64
2024/01/14 13:37:41;;;;;;;;;;;;;;;5.40;59.54;96372.69;4218754;28;5768;-64
2024/01/14 13:39:44;;;;;;;;;;;;;;;5.42;59.49;96385.59;4218360;28;5675;-64
2024/01/14 13:41:48;;;;;;;;;;;;;;;5.42;59.36;96368.06;4217094;28;5842;-64
2024/01/14 13:43:50;;;;;;;;;;;;;;;5.45;59.46;96366.94;4218065;28;5097;-64
2024/01/14 13:46:12;;;;;;;;;;;;;;;5.44;59.56;96367.94;4218007;28;7694;-65
2024/01/14 13:48:14;;;;;;;;;;;;;;;5.44;59.55;96370.53;4217916;28;5664;-64
2024/01/14 13:50:17;;;;;;;;;;;;;;;5.46;59.46;96368.56;4218130;28;5726;-63
2024/01/14 13:52:20;;;;;;;;;;;;;;;5.46;59.55;96352.84;4217849;28;6477;-64
2024/01/14 13:54:23;;;;;;;;;;;;;;;5.47;59.33;96364.94;4223039;28;5664;-64
2024/01/14 13:56:27;;;;;;;;;;;;;;;5.47;59.40;96371.00;4218002;28;5668;-64
2024/01/14 13:58:30;;;;;;;;;;;;;;;5.44;59.30;96365.31;4217830;28;5684;-64
2024/01/14 14:00:33;;;;;;;;;;;;;;;5.45;59.32;96351.22;4217552;28;5683;-64
2024/01/14 14:02:38;;;;;;;;;;;;;;;5.48;59.57;96356.09;4209901;28;5680;-63
2024/01/14 14:04:41;;;;;;;;;;;;;;;5.47;59.43;96349.22;4217882;28;5691;-64
2024/01/14 14:06:44;;;;;;;;;;;;;;;5.45;59.50;96340.72;4217556;28;5694;-64
2024/01/14 14:08:48;;;;;;;;;;;;;;;5.44;59.55;96349.56;4217317;28;5670;-63
2024/01/14 14:10:51;;;;;;;;;;;;;;;5.45;59.39;96338.91;4220971;28;5654;-64
2024/01/14 14:13:04;;;;;;;;;;;;;;;5.45;59.72;96341.53;4218266;28;5806;-63
2024/01/14 14:15:08;;;;;;;;;;;;;;;5.44;59.72;96355.63;4216674;28;5743;-63
2024/01/14 14:17:12;;;;;;;;;;;;;;;5.45;59.69;96356.44;4220247;28;5703;-63
2024/01/14 14:19:16;;;;;;;;;;;;;;;5.46;59.60;96356.28;4220481;28;5638;-63
2024/01/14 14:21:20;;;;;;;;;;;;;;;5.46;59.43;96353.66;4217622;28;5743;-63
2024/01/14 14:23:23;;;;;;;;;;;;;;;5.48;59.77;96361.34;4217635;28;6504;-63
2024/01/14 14:25:26;;;;;;;;;;;;;;;5.50;59.67;96343.63;4217624;28;5681;-63
2024/01/14 14:27:29;;;;;;;;;;;;;;;5.51;59.87;96340.81;4220172;28;5797;-64
2024/01/14 14:29:31;;;;;;;;;;;;;;;5.50;59.58;96341.00;4211432;28;5833;-63
2024/01/14 14:31:34;;;;;;;;;;;;;;;5.48;59.80;96346.44;4216791;28;5671;-62
2024/01/14 14:33:51;;;;;;;;;;;;;;;5.46;59.63;96350.22;4217553;28;5680;-63
2024/01/14 14:35:56;;;;;;;;;;;;;;;5.47;59.80;96352.66;4217383;28;5753;-63
2024/01/14 14:37:59;;;;;;;;;;;;;;;5.51;59.98;96343.44;4219218;28;5679;-62
2024/01/14 14:40:01;;;;;;;;;;;;;;;5.53;59.84;96345.91;4218361;28;5811;-63
2024/01/14 14:42:04;;;;;;;;;;;;;;;5.50;59.76;96346.25;4217627;28;5676;-64
2024/01/14 14:44:09;;;;;;;;;;;;;;;5.48;59.99;96362.16;4217625;28;5687;-63
2024/01/14 14:46:13;;;;;;;;;;;;;;;5.47;59.76;96352.66;4214464;28;5093;-63
2024/01/14 14:48:16;;;;;;;;;;;;;;;5.52;59.82;96352.13;4217280;28;7791;-63
2024/01/14 14:50:19;;;;;;;;;;;;;;;5.53;59.87;96349.34;4217629;28;5877;-62
2024/01/14 14:52:24;;;;;;;;;;;;;;;5.53;59.76;96348.50;4216587;28;5885;-63
2024/01/14 14:54:28;;;;;;;;;;;;;;;5.53;60.00;96359.00;4220978;28;5656;-63
2024/01/14 14:56:31;;;;;;;;;;;;;;;5.52;59.87;96350.31;4217284;28;5700;-62
2024/01/14 14:58:34;;;;;;;;;;;;;;;5.55;59.82;96346.56;4208872;28;5679;-63
2024/01/14 15:00:37;;;;;;;;;;;;;;;5.54;59.90;96350.97;4217270;28;5166;-63
2024/01/14 15:02:40;;;;;;;;;;;;;;;5.55;59.93;96349.19;4220647;28;5803;-63
2024/01/14 15:04:43;;;;;;;;;;;;;;;5.53;60.13;96348.50;4217342;28;5669;-64
2024/01/14 15:06:48;;;;;;;;;;;;;;;5.56;60.15;96342.94;4217153;28;5739;-64
2024/01/14 15:08:54;;;;;;;;;;;;;;;5.58;59.82;96343.59;4216970;28;5660;-65
2024/01/14 15:10:56;;;;;;;;;;;;;;;5.59;60.04;96347.03;4217320;28;5660;-63
2024/01/14 15:12:59;;;;;;;;;;;;;;;5.60;59.85;96338.16;4216955;28;5687;-64
2024/01/14 15:15:03;;;;;;;;;;;;;;;5.60;59.97;96327.69;4216985;28;5664;-64
2024/01/14 15:17:07;;;;;;;;;;;;;;;5.62;60.08;96321.25;4217237;28;5675;-64
2024/01/14 15:19:10;;;;;;;;;;;;;;;5.64;60.05;96321.91;4220631;28;5787;-63
2024/01/14 15:21:14;;;;;;;;;;;;;;;5.64;60.20;96307.97;4226549;28;5665;-65
2024/01/14 15:23:22;;;;;;;;;;;;;;;5.65;60.13;96302.56;4221643;28;5691;-63
2024/01/14 15:25:27;;;;;;;;;;;;;;;5.67;60.37;96308.47;4220504;28;5708;-64
2024/01/14 15:27:30;;;;;;;;;;;;;;;5.68;59.99;96302.22;4220200;28;5679;-63
2024/01/14 15:29:34;;;;;;;;;;;;;;;5.72;59.99;96318.41;4220273;28;5817;-63
2024/01/14 15:31:37;;;;;;;;;;;;;;;5.68;60.16;96304.84;4220304;28;5875;-64
2024/01/14 15:33:40;;;;;;;;;;;;;;;5.71;60.15;96309.75;4220343;28;6269;-65
2024/01/14 15:35:43;;;;;;;;;;;;;;;5.74;59.92;96305.94;4220997;28;5751;-64
2024/01/14 15:37:46;;;;;;;;;;;;;;;5.73;59.89;96302.50;4220260;28;5680;-62
2024/01/14 15:39:49;;;;;;;;;;;;;;;5.73;60.07;96293.81;4214434;28;5801;-67
2024/01/14 15:41:54;;;;;;;;;;;;;;;5.73;60.02;96286.78;4216804;28;5850;-61
2024/01/14 15:43:56;;;;;;;;;;;;;;;5.72;60.12;96298.25;4219621;28;5811;-61
2024/01/14 15:45:59;;;;;;;;;;;;;;;5.72;59.93;96295.63;4219660;28;5723;-61
2024/01/14 15:48:05;;;;;;;;;;;;;;;5.69;60.07;96285.50;4219501;28;5679;-61
2024/01/14 15:50:07;;;;;;;;;;;;;;;5.69;60.00;96279.44;4219477;28;5661;-61
2024/01/14 15:52:11;;;;;;;;;;;;;;;5.68;59.86;96272.56;4218584;28;5258;-61
2024/01/14 15:54:14;;;;;;;;;;;;;;;5.69;60.06;96288.13;4222615;28;7819;-61
2024/01/14 15:56:16;;;;;;;;;;;;;;;5.70;59.94;96284.50;4219964;28;5675;-61
2024/01/14 15:58:21;;;;;;;;;;;;;;;5.68;60.07;96283.88;4219783;28;6378;-63
2024/01/14 16:00:23;;;;;;;;;;;;;;;5.69;60.03;96293.38;4219825;28;5855;-62
2024/01/14 16:02:26;;;;;;;;;;;;;;;5.69;59.93;96293.38;4216481;28;5696;-64
2024/01/14 16:04:30;;;;;;;;;;;;;;;5.72;60.03;96297.44;4215424;28;5732;-60
2024/01/14 16:06:33;;;;;;;;;;;;;;;5.72;60.15;96285.13;4217904;28;5667;-60
2024/01/14 16:08:35;;;;;;;;;;;;;;;5.71;60.08;96277.44;4219302;28;5663;-59
2024/01/14 16:10:39;;;;;;;;;;;;;;;5.71;60.00;96278.25;4219491;28;5672;-60
2024/01/14 16:12:44;;;;;;;;;;;;;;;5.73;59.98;96286.78;4212946;28;5759;-60
2024/01/14 16:14:49;;;;;;;;;;;;;;;5.72;59.89;96284.31;4218093;28;5157;-60
2024/01/14 16:16:51;;;;;;;;;;;;;;;5.71;59.82;96283.50;4213840;28;7705;-60
2024/01/14 16:18:56;;;;;;;;;;;;;;;5.69;59.82;96274.19;4219401;28;5810;-60
2024/01/14 16:20:58;;;;;;;;;;;;;;;5.70;59.90;96276.63;4219492;28;5667;-59
2024/01/14 16:23:08;;;;;;;;;;;;;;;5.64;59.85;96271.25;4217277;28;5899;-59
2024/01/14 16:25:11;;;;;;;;;;;;;;;5.63;59.81;96274.88;4214868;28;5671;-60
2024/01/14 16:27:14;;;;;;;;;;;;;;;5.63;59.93;96274.88;4216875;28;5747;-61
2024/01/14 16:29:17;;;;;;;;;;;;;;;5.64;59.67;96277.31;4219196;28;5667;-60
2024/01/14 16:31:21;;;;;;;;;;;;;;;5.61;59.68;96277.69;4218532;28;5986;-60
2024/01/14 16:33:24;;;;;;;;;;;;;;;5.64;59.94;96284.38;4219343;28;5680;-61
2024/01/14 16:35:27;;;;;;;;;;;;;;;5.64;59.83;96282.56;4219245;28;5734;-60
2024/01/14 16:37:42;;;;;;;;;;;;;;;5.64;59.70;96274.69;4212222;28;5653;-60
2024/01/14 16:39:45;;;;;;;;;;;;;;;5.64;59.69;96277.31;4219352;28;5661;-60
2024/01/14 16:41:48;;;;;;;;;;;;;;;5.64;59.73;96272.06;4217937;28;5849;-60
2024/01/14 16:43:51;;;;;;;;;;;;;;;5.67;60.06;96271.75;4222213;28;5829;-60
2024/01/14 16:45:53;;;;;;;;;;;;;;;5.68;59.97;96278.63;4218950;28;6461;-61
2024/01/14 16:47:57;;;;;;;;;;;;;;;5.67;59.68;96278.81;4218760;28;5765;-60
2024/01/14 16:50:03;;;;;;;;;;;;;;;5.67;59.68;96270.94;4218703;28;5780;-60
2024/01/14 16:52:06;;;;;;;;;;;;;;;5.72;60.00;96271.22;4216920;28;5724;-60
2024/01/14 16:54:09;;;;;;;;;;;;;;;5.73;59.92;96262.34;4218594;28;5759;-61
2024/01/14 16:56:13;;;;;;;;;;;;;;;5.76;59.64;96262.00;4222190;28;6399;-61
2024/01/14 16:58:17;;;;;;;;;;;;;;;5.77;59.66;96255.75;4219489;28;5659;-62
2024/01/14 17:00:21;;;;;;;;;;;;;;;5.77;59.85;96261.81;4217478;28;5661;-62
2024/01/14 17:02:25;;;;;;;;;;;;;;;5.79;59.99;96262.47;4202596;28;5901;-63
2024/01/14 17:04:29;;;;;;;;;;;;;;;5.81;59.77;96257.88;4204442;28;5692;-68
2024/01/14 17:06:35;;;;;;;;;;;;;;;5.81;59.44;96242.13;4213094;28;5778;-65
2024/01/14 17:08:37;;;;;;;;;;;;;;;5.82;59.49;96248.19;4207667;28;5671;-64
2024/01/14 17:10:40;;;;;;;;;;;;;;;5.82;59.59;96253.44;4210117;28;5745;-70
2024/01/14 17:12:46;;;;;;;;;;;;;;;5.81;59.85;96257.88;4213391;28;5754;-64
2024/01/14 17:14:49;;;;;;;;;;;;;;;5.81;59.70;96263.09;4215226;28;5825;-64
2024/01/14 17:16:53;;;;;;;;;;;;;;;5.80;59.49;96261.47;4210562;28;5888;-63
2024/01/14 17:18:57;;;;;;;;;;;;;;;5.77;59.30;96251.31;4220652;28;5775;-63
2024/01/14 17:21:05;;;;;;;;;;;;;;;5.74;59.56;96235.13;4222192;28;5770;-63
2024/01/14 17:23:08;;;;;;;;;;;;;;;5.76;59.46;96249.69;4217779;28;5786;-63
2024/01/14 17:25:11;;;;;;;;;;;;;;;5.76;59.27;96254.13;4214067;28;5890;-64
2024/01/14 17:27:14;;;;;;;;;;;;;;;5.77;59.50;96253.94;4217184;28;5660;-66
2024/01/14 17:29:20;;;;;;;;;;;;;;;5.76;59.57;96254.94;4217779;28;5659;-66
2024/01/14 17:31:23;;;;;;;;;;;;;;;5.74;59.46;96251.69;4215914;28;5667;-65
2024/01/14 17:33:26;;;;;;;;;;;;;;;5.73;59.36;96250.06;4216609;28;5802;-64
2024/01/14 17:35:30;;;;;;;;;;;;;;;5.75;59.51;96250.69;4225247;28;5654;-65
2024/01/14 17:37:34;;;;;;;;;;;;;;;5.77;59.56;96237.38;4208876;28;5707;-67
2024/01/14 17:39:37;;;;;;;;;;;;;;;5.76;59.25;96249.69;4207047;28;5801;-66
2024/01/14 17:41:40;;;;;;;;;;;;;;;5.71;59.26;96240.72;4210212;28;5787;-66
2024/01/14 17:43:43;;;;;;;;;;;;;;;5.72;59.35;96242.38;4212803;28;5843;-66
2024/01/14 17:45:46;;;;;;;;;;;;;;;5.74;59.46;96253.50;4217238;28;6366;-65
2024/01/14 17:48:09;;;;;;;;;;;;;;;5.76;59.38;96233.13;4216823;28;5660;-64
2024/01/14 17:50:12;;;;;;;;;;;;;;;5.79;59.28;96227.56;4217464;28;5783;-66
2024/01/14 17:52:15;;;;;;;;;;;;;;;5.81;59.47;96231.63;4220746;28;5802;-67
2024/01/14 17:54:20;;;;;;;;;;;;;;;5.85;59.25;96232.91;4210671;28;5678;-64
2024/01/14 17:56:26;;;;;;;;;;;;;;;5.87;59.46;96224.03;4208709;28;5671;-64
2024/01/14 17:58:28;;;;;;;;;;;;;;;5.89;59.20;96211.53;4206907;28;5210;-63
2024/01/14 18:00:31;;;;;;;;;;;;;;;5.89;59.15;96216.78;4210255;28;5715;-61
2024/01/14 18:02:35;;;;;;;;;;;;;;;5.87;59.14;96216.97;4208499;28;5778;-61
2024/01/14 18:04:39;;;;;;;;;;;;;;;5.85;59.12;96213.72;4222854;28;6011;-62
2024/01/14 18:06:41;;;;;;;;;;;;;;;5.89;59.33;96222.88;4217491;28;6855;-63
2024/01/14 18:08:44;;;;;;;;;;;;;;;5.90;59.00;96215.84;4203148;28;5891;-64
2024/01/14 18:10:49;;;;;;;;;;;;;;;5.91;59.19;96215.69;4199290;28;5899;-65
2024/01/14 18:12:52;;;;;;;;;;;;;;;5.91;59.20;96230.59;4205585;28;5916;-60
2024/01/14 18:15:16;;;;;;;;;;;;;;;5.89;58.83;96235.16;4201642;28;5920;-61